sensor_id;sensor_type;location;lat;lon;timestamp;temperature;humidity
3942;DHT22;1985;48.592;8.850;2023-04-06T00:00:32;3.00;73.30
3942;DHT22;1985;48.592;8.850;2023-04-06T00:02:58;3.00;74.90
3942;DHT22;1985;48.592;8.850;2023-04-06T00:05:24;2.90;75.40
3942;DHT22;1985;48.592;8.850;2023-04-06T00:07:49;2.90;76.40
3942;DHT22;1985;48.592;8.850;2023-04-06T00:10:16;3.00;77.30
3942;DHT22;1985;48.592;8.850;2023-04-06T00:12:42;3.00;77.50
3942;DHT22;1985;48.592;8.850;2023-04-06T00:15:08;3.00;77.70
3942;DHT22;1985;48.592;8.850;2023-04-06T00:17:34;3.10;75.40
3942;DHT22;1985;48.592;8.850;2023-04-06T00:19:59;3.10;76.60
3942;DHT22;1985;48.592;8.850;2023-04-06T00:22:25;3.10;78.00
3942;DHT22;1985;48.592;8.850;2023-04-06T00:24:51;3.10;76.90
3942;DHT22;1985;48.592;8.850;2023-04-06T00:27:16;3.10;77.60
3942;DHT22;1985;48.592;8.850;2023-04-06T00:29:43;3.20;77.60
3942;DHT22;1985;48.592;8.850;2023-04-06T00:32:09;3.10;79.00
3942;DHT22;1985;48.592;8.850;2023-04-06T00:34:35;3.10;78.40
3942;DHT22;1985;48.592;8.850;2023-04-06T00:37:01;3.20;78.50
3942;DHT22;1985;48.592;8.850;2023-04-06T00:39:26;3.20;78.40
3942;DHT22;1985;48.592;8.850;2023-04-06T00:41:53;3.20;78.40
3942;DHT22;1985;48.592;8.850;2023-04-06T00:44:19;3.20;77.80
3942;DHT22;1985;48.592;8.850;2023-04-06T00:46:45;3.30;77.10
3942;DHT22;1985;48.592;8.850;2023-04-06T00:49:11;3.20;77.20
3942;DHT22;1985;48.592;8.850;2023-04-06T00:51:36;3.30;76.90
3942;DHT22;1985;48.592;8.850;2023-04-06T00:54:02;3.20;76.50
3942;DHT22;1985;48.592;8.850;2023-04-06T00:56:28;3.20;76.40
3942;DHT22;1985;48.592;8.850;2023-04-06T00:58:54;3.20;76.60
3942;DHT22;1985;48.592;8.850;2023-04-06T01:01:20;3.20;75.50
3942;DHT22;1985;48.592;8.850;2023-04-06T01:03:46;3.10;76.20
3942;DHT22;1985;48.592;8.850;2023-04-06T01:06:14;3.00;75.10
3942;DHT22;1985;48.592;8.850;2023-04-06T01:08:40;2.80;75.40
3942;DHT22;1985;48.592;8.850;2023-04-06T01:11:06;2.80;76.40
3942;DHT22;1985;48.592;8.850;2023-04-06T01:13:31;2.80;77.10
3942;DHT22;1985;48.592;8.850;2023-04-06T01:15:58;2.90;76.40
3942;DHT22;1985;48.592;8.850;2023-04-06T01:18:27;2.80;77.20
3942;DHT22;1985;48.592;8.850;2023-04-06T01:20:53;2.80;77.40
3942;DHT22;1985;48.592;8.850;2023-04-06T01:23:18;2.70;78.40
3942;DHT22;1985;48.592;8.850;2023-04-06T01:25:44;2.60;79.60
3942;DHT22;1985;48.592;8.850;2023-04-06T01:28:10;2.60;79.20
3942;DHT22;1985;48.592;8.850;2023-04-06T01:30:36;2.50;81.20
3942;DHT22;1985;48.592;8.850;2023-04-06T01:33:01;2.50;81.30
3942;DHT22;1985;48.592;8.850;2023-04-06T01:35:27;2.50;81.20
3942;DHT22;1985;48.592;8.850;2023-04-06T01:37:53;2.40;82.20
3942;DHT22;1985;48.592;8.850;2023-04-06T01:40:19;2.40;82.60
3942;DHT22;1985;48.592;8.850;2023-04-06T01:42:44;2.30;83.10
3942;DHT22;1985;48.592;8.850;2023-04-06T01:45:10;2.30;83.10
3942;DHT22;1985;48.592;8.850;2023-04-06T01:47:36;2.40;83.40
3942;DHT22;1985;48.592;8.850;2023-04-06T01:50:02;2.40;83.30
3942;DHT22;1985;48.592;8.850;2023-04-06T01:52:30;2.30;84.10
3942;DHT22;1985;48.592;8.850;2023-04-06T01:54:56;2.40;83.20
3942;DHT22;1985;48.592;8.850;2023-04-06T01:57:21;2.40;83.80
3942;DHT22;1985;48.592;8.850;2023-04-06T01:59:47;2.40;84.20
3942;DHT22;1985;48.592;8.850;2023-04-06T02:02:13;2.40;82.70
3942;DHT22;1985;48.592;8.850;2023-04-06T02:04:38;2.40;84.00
3942;DHT22;1985;48.592;8.850;2023-04-06T02:07:04;2.40;84.10
3942;DHT22;1985;48.592;8.850;2023-04-06T02:09:30;2.40;84.40
3942;DHT22;1985;48.592;8.850;2023-04-06T02:11:55;2.20;85.60
3942;DHT22;1985;48.592;8.850;2023-04-06T02:14:24;2.30;82.10
3942;DHT22;1985;48.592;8.850;2023-04-06T02:16:50;2.30;81.30
3942;DHT22;1985;48.592;8.850;2023-04-06T02:19:16;2.30;82.20
3942;DHT22;1985;48.592;8.850;2023-04-06T02:21:42;2.20;84.50
3942;DHT22;1985;48.592;8.850;2023-04-06T02:24:07;2.20;84.30
3942;DHT22;1985;48.592;8.850;2023-04-06T02:26:33;2.30;82.40
3942;DHT22;1985;48.592;8.850;2023-04-06T02:28:59;2.30;82.90
3942;DHT22;1985;48.592;8.850;2023-04-06T02:31:24;2.30;82.20
3942;DHT22;1985;48.592;8.850;2023-04-06T02:33:50;2.30;82.00
3942;DHT22;1985;48.592;8.850;2023-04-06T02:36:16;2.40;81.70
3942;DHT22;1985;48.592;8.850;2023-04-06T02:38:41;2.40;80.90
3942;DHT22;1985;48.592;8.850;2023-04-06T02:41:07;2.40;82.00
3942;DHT22;1985;48.592;8.850;2023-04-06T02:43:33;2.30;81.40
3942;DHT22;1985;48.592;8.850;2023-04-06T02:45:58;2.30;81.60
3942;DHT22;1985;48.592;8.850;2023-04-06T02:48:24;2.30;81.10
3942;DHT22;1985;48.592;8.850;2023-04-06T02:50:50;2.30;81.60
3942;DHT22;1985;48.592;8.850;2023-04-06T02:53:15;2.20;83.60
3942;DHT22;1985;48.592;8.850;2023-04-06T02:55:41;2.20;83.50
3942;DHT22;1985;48.592;8.850;2023-04-06T02:58:07;2.20;84.20
3942;DHT22;1985;48.592;8.850;2023-04-06T03:00:32;2.20;82.40
3942;DHT22;1985;48.592;8.850;2023-04-06T03:02:58;2.00;84.50
3942;DHT22;1985;48.592;8.850;2023-04-06T03:05:23;2.00;84.90
3942;DHT22;1985;48.592;8.850;2023-04-06T03:07:49;1.90;85.30
3942;DHT22;1985;48.592;8.850;2023-04-06T03:10:15;1.90;85.40
3942;DHT22;1985;48.592;8.850;2023-04-06T03:12:40;2.00;84.80
3942;DHT22;1985;48.592;8.850;2023-04-06T03:15:07;1.90;85.90
3942;DHT22;1985;48.592;8.850;2023-04-06T03:17:33;1.90;86.60
3942;DHT22;1985;48.592;8.850;2023-04-06T03:19:59;1.80;86.90
3942;DHT22;1985;48.592;8.850;2023-04-06T03:22:24;1.90;85.40
3942;DHT22;1985;48.592;8.850;2023-04-06T03:24:50;1.90;86.70
3942;DHT22;1985;48.592;8.850;2023-04-06T03:27:16;1.90;86.30
3942;DHT22;1985;48.592;8.850;2023-04-06T03:29:41;1.90;86.30
3942;DHT22;1985;48.592;8.850;2023-04-06T03:32:07;1.90;86.40
3942;DHT22;1985;48.592;8.850;2023-04-06T03:34:33;1.90;86.00
3942;DHT22;1985;48.592;8.850;2023-04-06T03:36:58;1.80;86.00
3942;DHT22;1985;48.592;8.850;2023-04-06T03:39:24;1.80;87.50
3942;DHT22;1985;48.592;8.850;2023-04-06T03:41:50;1.80;87.00
3942;DHT22;1985;48.592;8.850;2023-04-06T03:44:16;1.80;86.80
3942;DHT22;1985;48.592;8.850;2023-04-06T03:46:42;1.90;85.00
3942;DHT22;1985;48.592;8.850;2023-04-06T03:49:07;1.90;84.70
3942;DHT22;1985;48.592;8.850;2023-04-06T03:51:33;1.90;84.60
3942;DHT22;1985;48.592;8.850;2023-04-06T03:53:59;1.90;84.30
3942;DHT22;1985;48.592;8.850;2023-04-06T03:56:24;1.90;84.20
3942;DHT22;1985;48.592;8.850;2023-04-06T03:58:50;1.90;85.60
3942;DHT22;1985;48.592;8.850;2023-04-06T04:01:17;1.80;86.30
3942;DHT22;1985;48.592;8.850;2023-04-06T04:03:43;1.70;87.60
3942;DHT22;1985;48.592;8.850;2023-04-06T04:06:09;1.60;87.10
3942;DHT22;1985;48.592;8.850;2023-04-06T04:08:35;1.70;85.70
3942;DHT22;1985;48.592;8.850;2023-04-06T04:11:01;1.70;86.80
3942;DHT22;1985;48.592;8.850;2023-04-06T04:13:26;1.70;86.60
3942;DHT22;1985;48.592;8.850;2023-04-06T04:15:52;1.70;87.20
3942;DHT22;1985;48.592;8.850;2023-04-06T04:18:18;1.70;87.80
3942;DHT22;1985;48.592;8.850;2023-04-06T04:20:44;1.70;88.20
3942;DHT22;1985;48.592;8.850;2023-04-06T04:23:10;1.70;87.90
3942;DHT22;1985;48.592;8.850;2023-04-06T04:25:36;1.60;88.60
3942;DHT22;1985;48.592;8.850;2023-04-06T04:28:02;1.60;88.70
3942;DHT22;1985;48.592;8.850;2023-04-06T04:30:28;1.50;89.40
3942;DHT22;1985;48.592;8.850;2023-04-06T04:32:53;1.50;89.10
3942;DHT22;1985;48.592;8.850;2023-04-06T04:35:19;1.50;88.70
3942;DHT22;1985;48.592;8.850;2023-04-06T04:37:45;1.50;86.80
3942;DHT22;1985;48.592;8.850;2023-04-06T04:40:11;1.50;88.00
3942;DHT22;1985;48.592;8.850;2023-04-06T04:42:37;1.60;86.60
3942;DHT22;1985;48.592;8.850;2023-04-06T04:45:03;1.50;86.70
3942;DHT22;1985;48.592;8.850;2023-04-06T04:47:28;1.50;88.90
3942;DHT22;1985;48.592;8.850;2023-04-06T04:49:54;1.40;89.50
3942;DHT22;1985;48.592;8.850;2023-04-06T04:52:20;1.30;90.10
3942;DHT22;1985;48.592;8.850;2023-04-06T04:54:45;1.30;90.70
3942;DHT22;1985;48.592;8.850;2023-04-06T04:57:12;1.30;90.30
3942;DHT22;1985;48.592;8.850;2023-04-06T04:59:38;1.30;90.20
3942;DHT22;1985;48.592;8.850;2023-04-06T05:02:03;1.40;90.00
3942;DHT22;1985;48.592;8.850;2023-04-06T05:04:29;1.40;89.50
3942;DHT22;1985;48.592;8.850;2023-04-06T05:07:08;1.40;90.20
3942;DHT22;1985;48.592;8.850;2023-04-06T05:09:34;1.40;90.60
3942;DHT22;1985;48.592;8.850;2023-04-06T05:12:00;1.40;90.40
3942;DHT22;1985;48.592;8.850;2023-04-06T05:14:27;1.50;90.40
3942;DHT22;1985;48.592;8.850;2023-04-06T05:16:53;1.60;89.50
3942;DHT22;1985;48.592;8.850;2023-04-06T05:19:19;1.60;90.30
3942;DHT22;1985;48.592;8.850;2023-04-06T05:21:45;1.60;90.30
3942;DHT22;1985;48.592;8.850;2023-04-06T05:24:11;1.60;90.30
3942;DHT22;1985;48.592;8.850;2023-04-06T05:26:36;1.60;90.60
3942;DHT22;1985;48.592;8.850;2023-04-06T05:29:02;1.50;90.90
3942;DHT22;1985;48.592;8.850;2023-04-06T05:31:29;1.70;90.00
3942;DHT22;1985;48.592;8.850;2023-04-06T05:33:55;1.80;89.30
3942;DHT22;1985;48.592;8.850;2023-04-06T05:36:21;1.80;89.70
3942;DHT22;1985;48.592;8.850;2023-04-06T05:38:47;1.90;89.90
3942;DHT22;1985;48.592;8.850;2023-04-06T05:41:13;1.90;89.90
3942;DHT22;1985;48.592;8.850;2023-04-06T05:43:38;2.00;88.90
3942;DHT22;1985;48.592;8.850;2023-04-06T05:46:04;2.00;89.60
3942;DHT22;1985;48.592;8.850;2023-04-06T05:48:30;2.10;88.40
3942;DHT22;1985;48.592;8.850;2023-04-06T05:50:55;2.20;87.20
3942;DHT22;1985;48.592;8.850;2023-04-06T05:53:21;2.20;87.00
3942;DHT22;1985;48.592;8.850;2023-04-06T05:55:47;2.30;87.00
3942;DHT22;1985;48.592;8.850;2023-04-06T05:58:13;2.20;86.30
3942;DHT22;1985;48.592;8.850;2023-04-06T06:00:39;2.20;87.10
3942;DHT22;1985;48.592;8.850;2023-04-06T06:03:05;2.20;86.60
3942;DHT22;1985;48.592;8.850;2023-04-06T06:05:31;2.20;87.40
3942;DHT22;1985;48.592;8.850;2023-04-06T06:07:57;2.20;88.80
3942;DHT22;1985;48.592;8.850;2023-04-06T06:10:22;2.20;89.50
3942;DHT22;1985;48.592;8.850;2023-04-06T06:12:48;2.10;90.00
3942;DHT22;1985;48.592;8.850;2023-04-06T06:15:14;2.30;89.10
3942;DHT22;1985;48.592;8.850;2023-04-06T06:17:40;2.20;88.80
3942;DHT22;1985;48.592;8.850;2023-04-06T06:20:07;2.20;88.30
3942;DHT22;1985;48.592;8.850;2023-04-06T06:22:32;2.10;89.10
3942;DHT22;1985;48.592;8.850;2023-04-06T06:24:58;2.10;89.50
3942;DHT22;1985;48.592;8.850;2023-04-06T06:27:24;2.10;88.80
3942;DHT22;1985;48.592;8.850;2023-04-06T06:29:49;1.80;89.30
3942;DHT22;1985;48.592;8.850;2023-04-06T06:32:15;1.70;90.10
3942;DHT22;1985;48.592;8.850;2023-04-06T06:34:41;1.90;90.60
3942;DHT22;1985;48.592;8.850;2023-04-06T06:37:07;1.90;90.20
3942;DHT22;1985;48.592;8.850;2023-04-06T06:39:32;2.00;90.70
3942;DHT22;1985;48.592;8.850;2023-04-06T06:41:58;2.00;90.60
3942;DHT22;1985;48.592;8.850;2023-04-06T06:44:27;1.80;90.50
3942;DHT22;1985;48.592;8.850;2023-04-06T06:46:52;1.80;91.00
3942;DHT22;1985;48.592;8.850;2023-04-06T06:49:19;1.70;91.10
3942;DHT22;1985;48.592;8.850;2023-04-06T06:51:44;1.80;91.50
3942;DHT22;1985;48.592;8.850;2023-04-06T06:54:12;1.80;91.70
3942;DHT22;1985;48.592;8.850;2023-04-06T06:56:38;2.00;91.80
3942;DHT22;1985;48.592;8.850;2023-04-06T06:59:05;2.00;91.60
3942;DHT22;1985;48.592;8.850;2023-04-06T07:01:32;2.20;91.20
3942;DHT22;1985;48.592;8.850;2023-04-06T07:03:59;2.40;91.40
3942;DHT22;1985;48.592;8.850;2023-04-06T07:06:25;2.60;91.10
3942;DHT22;1985;48.592;8.850;2023-04-06T07:08:51;2.80;91.20
3942;DHT22;1985;48.592;8.850;2023-04-06T07:11:16;3.00;90.50
3942;DHT22;1985;48.592;8.850;2023-04-06T07:13:42;3.10;90.00
3942;DHT22;1985;48.592;8.850;2023-04-06T07:16:08;3.20;88.30
3942;DHT22;1985;48.592;8.850;2023-04-06T07:18:34;3.40;88.90
3942;DHT22;1985;48.592;8.850;2023-04-06T07:20:59;3.50;88.50
3942;DHT22;1985;48.592;8.850;2023-04-06T07:23:25;3.50;88.30
3942;DHT22;1985;48.592;8.850;2023-04-06T07:25:51;3.60;88.60
3942;DHT22;1985;48.592;8.850;2023-04-06T07:28:18;3.60;88.40
3942;DHT22;1985;48.592;8.850;2023-04-06T07:30:44;3.50;88.80
3942;DHT22;1985;48.592;8.850;2023-04-06T07:33:10;3.60;89.00
3942;DHT22;1985;48.592;8.850;2023-04-06T07:35:36;3.80;89.50
3942;DHT22;1985;48.592;8.850;2023-04-06T07:38:02;4.00;88.30
3942;DHT22;1985;48.592;8.850;2023-04-06T07:40:28;4.00;87.80
3942;DHT22;1985;48.592;8.850;2023-04-06T07:42:54;4.30;88.10
3942;DHT22;1985;48.592;8.850;2023-04-06T07:45:20;4.50;87.30
3942;DHT22;1985;48.592;8.850;2023-04-06T07:47:46;4.60;86.90
3942;DHT22;1985;48.592;8.850;2023-04-06T07:50:12;4.80;86.20
3942;DHT22;1985;48.592;8.850;2023-04-06T07:52:38;4.70;86.10
3942;DHT22;1985;48.592;8.850;2023-04-06T07:55:05;4.70;86.60
3942;DHT22;1985;48.592;8.850;2023-04-06T07:57:30;5.10;87.50
3942;DHT22;1985;48.592;8.850;2023-04-06T07:59:56;5.40;87.10
3942;DHT22;1985;48.592;8.850;2023-04-06T08:02:22;5.60;85.00
3942;DHT22;1985;48.592;8.850;2023-04-06T08:04:47;5.60;85.30
3942;DHT22;1985;48.592;8.850;2023-04-06T08:07:13;5.70;84.50
3942;DHT22;1985;48.592;8.850;2023-04-06T08:09:39;5.70;86.10
3942;DHT22;1985;48.592;8.850;2023-04-06T08:12:05;6.00;85.40
3942;DHT22;1985;48.592;8.850;2023-04-06T08:14:30;6.20;85.40
3942;DHT22;1985;48.592;8.850;2023-04-06T08:16:56;6.40;84.10
3942;DHT22;1985;48.592;8.850;2023-04-06T08:19:22;6.50;83.70
3942;DHT22;1985;48.592;8.850;2023-04-06T08:21:47;6.60;82.80
3942;DHT22;1985;48.592;8.850;2023-04-06T08:24:14;6.60;81.70
3942;DHT22;1985;48.592;8.850;2023-04-06T08:26:39;6.60;82.30
3942;DHT22;1985;48.592;8.850;2023-04-06T08:29:05;6.80;82.80
3942;DHT22;1985;48.592;8.850;2023-04-06T08:31:33;7.10;81.40
3942;DHT22;1985;48.592;8.850;2023-04-06T08:33:59;7.30;82.40
3942;DHT22;1985;48.592;8.850;2023-04-06T08:36:25;7.20;79.70
3942;DHT22;1985;48.592;8.850;2023-04-06T08:38:50;7.40;80.50
3942;DHT22;1985;48.592;8.850;2023-04-06T08:41:18;7.70;79.30
3942;DHT22;1985;48.592;8.850;2023-04-06T08:43:52;7.70;76.50
3942;DHT22;1985;48.592;8.850;2023-04-06T08:46:21;7.90;77.90
3942;DHT22;1985;48.592;8.850;2023-04-06T08:48:47;8.20;76.10
3942;DHT22;1985;48.592;8.850;2023-04-06T08:51:15;8.10;74.50
3942;DHT22;1985;48.592;8.850;2023-04-06T08:53:41;8.20;70.50
3942;DHT22;1985;48.592;8.850;2023-04-06T08:56:07;8.40;73.80
3942;DHT22;1985;48.592;8.850;2023-04-06T08:58:37;8.90;74.10
3942;DHT22;1985;48.592;8.850;2023-04-06T09:01:07;9.10;68.30
3942;DHT22;1985;48.592;8.850;2023-04-06T09:03:37;8.80;69.50
3942;DHT22;1985;48.592;8.850;2023-04-06T09:06:04;8.80;70.90
3942;DHT22;1985;48.592;8.850;2023-04-06T09:08:30;9.10;70.30
3942;DHT22;1985;48.592;8.850;2023-04-06T09:10:56;9.40;68.00
3942;DHT22;1985;48.592;8.850;2023-04-06T09:13:21;9.60;67.00
3942;DHT22;1985;48.592;8.850;2023-04-06T09:16:07;9.90;64.40
3942;DHT22;1985;48.592;8.850;2023-04-06T09:18:33;10.20;60.70
3942;DHT22;1985;48.592;8.850;2023-04-06T09:21:03;10.30;60.00
3942;DHT22;1985;48.592;8.850;2023-04-06T09:23:29;10.30;55.70
3942;DHT22;1985;48.592;8.850;2023-04-06T09:26:12;10.30;58.20
3942;DHT22;1985;48.592;8.850;2023-04-06T09:29:04;10.40;59.90
3942;DHT22;1985;48.592;8.850;2023-04-06T09:31:31;10.40;60.70
3942;DHT22;1985;48.592;8.850;2023-04-06T09:34:00;10.60;58.70
3942;DHT22;1985;48.592;8.850;2023-04-06T09:36:36;10.90;56.00
3942;DHT22;1985;48.592;8.850;2023-04-06T09:39:06;11.10;56.10
3942;DHT22;1985;48.592;8.850;2023-04-06T09:41:34;11.40;55.30
3942;DHT22;1985;48.592;8.850;2023-04-06T09:44:03;11.30;51.40
3942;DHT22;1985;48.592;8.850;2023-04-06T09:46:32;11.50;51.20
3942;DHT22;1985;48.592;8.850;2023-04-06T09:49:02;11.90;53.60
3942;DHT22;1985;48.592;8.850;2023-04-06T09:51:37;11.90;52.20
3942;DHT22;1985;48.592;8.850;2023-04-06T09:54:04;11.60;49.40
3942;DHT22;1985;48.592;8.850;2023-04-06T09:56:37;11.70;51.20
3942;DHT22;1985;48.592;8.850;2023-04-06T09:59:13;11.60;49.10
3942;DHT22;1985;48.592;8.850;2023-04-06T10:01:39;11.50;47.70
3942;DHT22;1985;48.592;8.850;2023-04-06T10:04:09;11.60;49.00
3942;DHT22;1985;48.592;8.850;2023-04-06T10:06:38;11.80;46.80
3942;DHT22;1985;48.592;8.850;2023-04-06T10:09:05;11.70;46.90
3942;DHT22;1985;48.592;8.850;2023-04-06T10:11:34;12.00;47.30
3942;DHT22;1985;48.592;8.850;2023-04-06T10:14:00;11.90;46.80
3942;DHT22;1985;48.592;8.850;2023-04-06T10:16:26;12.20;46.60
3942;DHT22;1985;48.592;8.850;2023-04-06T10:18:58;12.50;46.50
3942;DHT22;1985;48.592;8.850;2023-04-06T10:21:27;13.50;44.90
3942;DHT22;1985;48.592;8.850;2023-04-06T10:23:58;14.80;44.00
3942;DHT22;1985;48.592;8.850;2023-04-06T10:26:25;16.60;43.20
3942;DHT22;1985;48.592;8.850;2023-04-06T10:28:51;17.90;38.10
3942;DHT22;1985;48.592;8.850;2023-04-06T10:31:26;18.80;36.90
3942;DHT22;1985;48.592;8.850;2023-04-06T10:33:57;19.60;37.20
3942;DHT22;1985;48.592;8.850;2023-04-06T10:36:24;21.00;37.10
3942;DHT22;1985;48.592;8.850;2023-04-06T10:39:02;20.80;32.60
3942;DHT22;1985;48.592;8.850;2023-04-06T10:41:33;21.40;30.50
3942;DHT22;1985;48.592;8.850;2023-04-06T10:43:59;20.20;29.50
3942;DHT22;1985;48.592;8.850;2023-04-06T10:46:28;20.30;29.30
3942;DHT22;1985;48.592;8.850;2023-04-06T10:48:54;21.00;28.90
3942;DHT22;1985;48.592;8.850;2023-04-06T10:51:26;20.90;29.60
3942;DHT22;1985;48.592;8.850;2023-04-06T10:53:53;22.20;30.10
3942;DHT22;1985;48.592;8.850;2023-04-06T10:56:23;22.50;27.80
3942;DHT22;1985;48.592;8.850;2023-04-06T10:58:51;22.00;27.70
3942;DHT22;1985;48.592;8.850;2023-04-06T11:01:19;22.00;29.00
3942;DHT22;1985;48.592;8.850;2023-04-06T11:03:56;22.40;28.90
3942;DHT22;1985;48.592;8.850;2023-04-06T11:06:26;22.00;27.40
3942;DHT22;1985;48.592;8.850;2023-04-06T11:08:53;22.40;27.90
3942;DHT22;1985;48.592;8.850;2023-04-06T11:11:21;23.30;28.40
3942;DHT22;1985;48.592;8.850;2023-04-06T11:13:52;24.40;28.00
3942;DHT22;1985;48.592;8.850;2023-04-06T11:16:20;25.80;27.40
3942;DHT22;1985;48.592;8.850;2023-04-06T11:19:06;27.40;26.30
3942;DHT22;1985;48.592;8.850;2023-04-06T11:21:47;29.10;23.30
3942;DHT22;1985;48.592;8.850;2023-04-06T11:26:45;30.80;23.80
3942;DHT22;1985;48.592;8.850;2023-04-06T11:29:12;32.10;23.20
3942;DHT22;1985;48.592;8.850;2023-04-06T11:31:42;32.40;22.00
3942;DHT22;1985;48.592;8.850;2023-04-06T11:34:11;32.40;21.50
3942;DHT22;1985;48.592;8.850;2023-04-06T11:36:40;32.70;21.70
3942;DHT22;1985;48.592;8.850;2023-04-06T11:39:06;31.60;19.90
3942;DHT22;1985;48.592;8.850;2023-04-06T11:41:32;29.50;19.90
3942;DHT22;1985;48.592;8.850;2023-04-06T11:44:01;24.90;22.40
3942;DHT22;1985;48.592;8.850;2023-04-06T11:46:28;20.90;25.50
3942;DHT22;1985;48.592;8.850;2023-04-06T11:49:01;20.00;26.80
3942;DHT22;1985;48.592;8.850;2023-04-06T11:51:27;21.10;27.30
3942;DHT22;1985;48.592;8.850;2023-04-06T11:53:53;20.50;27.50
3942;DHT22;1985;48.592;8.850;2023-04-06T11:56:28;20.80;27.60
3942;DHT22;1985;48.592;8.850;2023-04-06T11:58:58;24.90;27.50
3942;DHT22;1985;48.592;8.850;2023-04-06T12:01:25;27.50;25.70
3942;DHT22;1985;48.592;8.850;2023-04-06T12:03:52;29.00;24.60
3942;DHT22;1985;48.592;8.850;2023-04-06T12:06:18;27.50;22.80
3942;DHT22;1985;48.592;8.850;2023-04-06T12:08:44;26.50;24.30
3942;DHT22;1985;48.592;8.850;2023-04-06T12:11:10;26.80;25.20
3942;DHT22;1985;48.592;8.850;2023-04-06T12:13:37;25.50;24.80
3942;DHT22;1985;48.592;8.850;2023-04-06T12:16:02;25.90;24.70
3942;DHT22;1985;48.592;8.850;2023-04-06T12:18:29;25.70;25.10
3942;DHT22;1985;48.592;8.850;2023-04-06T12:20:55;24.50;25.30
3942;DHT22;1985;48.592;8.850;2023-04-06T12:23:22;22.70;25.80
3942;DHT22;1985;48.592;8.850;2023-04-06T12:25:48;22.00;26.70
3942;DHT22;1985;48.592;8.850;2023-04-06T12:28:14;22.90;26.60
3942;DHT22;1985;48.592;8.850;2023-04-06T12:30:39;24.50;27.40
3942;DHT22;1985;48.592;8.850;2023-04-06T12:33:06;25.90;25.80
3942;DHT22;1985;48.592;8.850;2023-04-06T12:35:37;27.30;25.30
3942;DHT22;1985;48.592;8.850;2023-04-06T12:38:02;28.70;24.30
3942;DHT22;1985;48.592;8.850;2023-04-06T12:40:28;29.50;22.70
3942;DHT22;1985;48.592;8.850;2023-04-06T12:42:54;28.30;23.10
3942;DHT22;1985;48.592;8.850;2023-04-06T12:45:20;27.90;24.20
3942;DHT22;1985;48.592;8.850;2023-04-06T12:47:46;25.00;25.30
3942;DHT22;1985;48.592;8.850;2023-04-06T12:50:12;20.50;24.60
3942;DHT22;1985;48.592;8.850;2023-04-06T12:52:37;20.40;27.20
3942;DHT22;1985;48.592;8.850;2023-04-06T12:55:03;20.00;26.70
3942;DHT22;1985;48.592;8.850;2023-04-06T12:57:30;19.30;28.50
3942;DHT22;1985;48.592;8.850;2023-04-06T12:59:57;19.50;28.80
3942;DHT22;1985;48.592;8.850;2023-04-06T13:02:22;19.50;28.70
3942;DHT22;1985;48.592;8.850;2023-04-06T13:04:49;18.30;29.10
3942;DHT22;1985;48.592;8.850;2023-04-06T13:07:15;17.10;29.70
3942;DHT22;1985;48.592;8.850;2023-04-06T13:09:41;17.30;30.60
3942;DHT22;1985;48.592;8.850;2023-04-06T13:12:07;17.80;29.40
3942;DHT22;1985;48.592;8.850;2023-04-06T13:14:33;17.60;30.40
3942;DHT22;1985;48.592;8.850;2023-04-06T13:16:59;16.80;30.00
3942;DHT22;1985;48.592;8.850;2023-04-06T13:19:25;16.50;30.00
3942;DHT22;1985;48.592;8.850;2023-04-06T13:21:50;16.90;31.80
3942;DHT22;1985;48.592;8.850;2023-04-06T13:24:16;16.70;31.40
3942;DHT22;1985;48.592;8.850;2023-04-06T13:26:42;16.60;32.50
3942;DHT22;1985;48.592;8.850;2023-04-06T13:29:07;17.00;32.30
3942;DHT22;1985;48.592;8.850;2023-04-06T13:31:33;17.10;31.50
3942;DHT22;1985;48.592;8.850;2023-04-06T13:33:59;17.20;32.00
3942;DHT22;1985;48.592;8.850;2023-04-06T13:36:25;17.50;31.70
3942;DHT22;1985;48.592;8.850;2023-04-06T13:38:52;17.10;30.00
3942;DHT22;1985;48.592;8.850;2023-04-06T13:41:22;17.30;32.60
3942;DHT22;1985;48.592;8.850;2023-04-06T13:43:48;17.50;32.70
3942;DHT22;1985;48.592;8.850;2023-04-06T13:46:15;17.80;32.60
3942;DHT22;1985;48.592;8.850;2023-04-06T13:48:40;18.10;32.20
3942;DHT22;1985;48.592;8.850;2023-04-06T13:51:13;18.30;31.60
3942;DHT22;1985;48.592;8.850;2023-04-06T13:53:39;18.10;30.10
3942;DHT22;1985;48.592;8.850;2023-04-06T13:56:06;17.80;30.90
3942;DHT22;1985;48.592;8.850;2023-04-06T13:58:32;17.50;30.60
3942;DHT22;1985;48.592;8.850;2023-04-06T14:01:08;17.30;32.30
3942;DHT22;1985;48.592;8.850;2023-04-06T14:03:35;16.50;32.80
3942;DHT22;1985;48.592;8.850;2023-04-06T14:06:08;16.40;33.40
3942;DHT22;1985;48.592;8.850;2023-04-06T14:08:34;15.60;33.10
3942;DHT22;1985;48.592;8.850;2023-04-06T14:11:03;15.10;34.00
3942;DHT22;1985;48.592;8.850;2023-04-06T14:13:29;15.00;35.50
3942;DHT22;1985;48.592;8.850;2023-04-06T14:15:55;14.10;35.40
3942;DHT22;1985;48.592;8.850;2023-04-06T14:18:22;14.10;35.20
3942;DHT22;1985;48.592;8.850;2023-04-06T14:20:55;14.30;35.80
3942;DHT22;1985;48.592;8.850;2023-04-06T14:23:21;14.50;35.10
3942;DHT22;1985;48.592;8.850;2023-04-06T14:25:47;14.80;36.20
3942;DHT22;1985;48.592;8.850;2023-04-06T14:28:13;14.90;35.10
3942;DHT22;1985;48.592;8.850;2023-04-06T14:30:39;15.10;35.10
3942;DHT22;1985;48.592;8.850;2023-04-06T14:33:05;15.10;35.10
3942;DHT22;1985;48.592;8.850;2023-04-06T14:35:31;15.20;34.90
3942;DHT22;1985;48.592;8.850;2023-04-06T14:37:58;15.40;35.40
3942;DHT22;1985;48.592;8.850;2023-04-06T14:40:24;15.60;35.40
3942;DHT22;1985;48.592;8.850;2023-04-06T14:42:50;15.80;35.50
3942;DHT22;1985;48.592;8.850;2023-04-06T14:45:18;15.80;35.30
3942;DHT22;1985;48.592;8.850;2023-04-06T14:47:46;15.70;35.00
3942;DHT22;1985;48.592;8.850;2023-04-06T14:50:12;15.50;34.10
3942;DHT22;1985;48.592;8.850;2023-04-06T14:52:38;15.00;34.90
3942;DHT22;1985;48.592;8.850;2023-04-06T14:55:04;14.70;35.90
3942;DHT22;1985;48.592;8.850;2023-04-06T14:57:30;14.80;36.20
3942;DHT22;1985;48.592;8.850;2023-04-06T14:59:56;14.90;37.20
3942;DHT22;1985;48.592;8.850;2023-04-06T15:02:22;15.00;37.30
3942;DHT22;1985;48.592;8.850;2023-04-06T15:04:47;15.10;37.40
3942;DHT22;1985;48.592;8.850;2023-04-06T15:07:13;15.20;37.70
3942;DHT22;1985;48.592;8.850;2023-04-06T15:09:38;15.00;37.60
3942;DHT22;1985;48.592;8.850;2023-04-06T15:12:04;15.10;37.80
3942;DHT22;1985;48.592;8.850;2023-04-06T15:14:30;15.10;37.80
3942;DHT22;1985;48.592;8.850;2023-04-06T15:16:56;15.20;38.00
3942;DHT22;1985;48.592;8.850;2023-04-06T15:19:22;15.10;37.00
3942;DHT22;1985;48.592;8.850;2023-04-06T15:21:47;15.20;37.00
3942;DHT22;1985;48.592;8.850;2023-04-06T15:24:13;15.30;37.50
3942;DHT22;1985;48.592;8.850;2023-04-06T15:26:38;15.30;37.10
3942;DHT22;1985;48.592;8.850;2023-04-06T15:29:04;15.50;37.10
3942;DHT22;1985;48.592;8.850;2023-04-06T15:31:30;15.50;37.20
3942;DHT22;1985;48.592;8.850;2023-04-06T15:33:57;15.70;37.20
3942;DHT22;1985;48.592;8.850;2023-04-06T15:36:27;15.80;37.10
3942;DHT22;1985;48.592;8.850;2023-04-06T15:38:59;15.90;36.20
3942;DHT22;1985;48.592;8.850;2023-04-06T15:41:26;16.00;36.20
3942;DHT22;1985;48.592;8.850;2023-04-06T15:43:52;16.10;35.30
3942;DHT22;1985;48.592;8.850;2023-04-06T15:46:18;16.10;36.20
3942;DHT22;1985;48.592;8.850;2023-04-06T15:48:44;16.10;36.50
3942;DHT22;1985;48.592;8.850;2023-04-06T15:51:10;16.00;36.90
3942;DHT22;1985;48.592;8.850;2023-04-06T15:53:37;15.90;36.60
3942;DHT22;1985;48.592;8.850;2023-04-06T15:56:05;15.70;36.60
3942;DHT22;1985;48.592;8.850;2023-04-06T15:58:32;15.50;36.40
3942;DHT22;1985;48.592;8.850;2023-04-06T16:00:58;15.70;37.20
3942;DHT22;1985;48.592;8.850;2023-04-06T16:03:24;15.60;37.60
3942;DHT22;1985;48.592;8.850;2023-04-06T16:05:51;15.50;37.30
3942;DHT22;1985;48.592;8.850;2023-04-06T16:08:17;15.50;37.60
3942;DHT22;1985;48.592;8.850;2023-04-06T16:10:44;15.40;37.00